METAR Data
IDs: Format: Raw Decoded Include TAF

Data at: 0428 UTC 26 Sep 2018

KMRT 260415Z AUTO 22005KT 10SM SCT025 OVC032 22/20 A2996 RMK AO2 P0001 T02230201
KMRT 260355Z AUTO 23007KT 10SM SCT034 BKN041 OVC050 22/20 A2997 RMK AO2 P0001 T02220203
KMRT 260335Z AUTO 22007KT 7SM SCT025 BKN030 OVC055 22/20 A2997 RMK AO2 P0001 T02230203
KMRT 260315Z AUTO 21008G14KT 10SM BKN025 BKN030 BKN085 23/20 A2997 RMK AO2 P0001 T02250202
KMRT 260255Z AUTO 22009G15KT 10SM SCT027 SCT085 22/21 A2998 RMK AO2 P0001 60003 T02230205
KMRT 260235Z AUTO 22009KT 10SM SCT013 SCT019 SCT026 23/21 A2997 RMK AO2 P0001 T02250206
KMRT 260215Z AUTO 21009KT 10SM BKN015 BKN019 OVC026 23/21 A2996 RMK AO2 T02270207
KMRT 260155Z AUTO 20008KT 10SM BKN022 OVC028 23/21 A2996 RMK AO2 P0001 T02300205
KMRT 260135Z AUTO 21010KT 10SM BKN024 BKN030 OVC100 23/21 A2996 RMK AO2 P0001 T02320205
KMRT 260115Z AUTO 20009KT 10SM BKN020 BKN049 OVC100 23/21 A2995 RMK AO2 T02340205
KMRT 260055Z AUTO 21009KT 10SM BKN020 BKN050 BKN085 24/21 A2997 RMK AO2 P0001 T02360205
KMRT 260035Z AUTO 22009KT 10SM SCT022 SCT029 BKN050 24/21 A2997 RMK AO2 T02360206
KMRT 260015Z AUTO 21011G15KT 10SM BKN024 OVC030 24/21 A2997 RMK AO2 T02400208
KMRT 252355Z AUTO 21008KT 10SM BKN024 OVC032 24/21 A2997 RMK AO2 P0001 60008 T02380210 10245 20224
KMRT 252335Z AUTO 19008KT 10SM BKN026 OVC032 24/21 A2997 RMK AO2 P0001 T02360210
KMRT 252315Z AUTO 18008KT 10SM SCT026 OVC033 24/21 A2996 RMK AO2 P0001 T02360209
KMRT 252255Z AUTO 18007KT 10SM SCT024 BKN035 OVC043 24/21 A2996 RMK AO2 P0001 T02360207
KMRT 252235Z AUTO 20005KT 10SM BKN025 OVC030 24/21 A2996 RMK AO2 P0001 T02360207
KMRT 252215Z AUTO 20006KT 10SM BKN026 BKN032 OVC038 24/21 A2995 RMK AO2 T02400206
KMRT 252155Z AUTO 19005KT 10SM SCT032 OVC040 24/21 A2996 RMK AO2 P0001 T02400205
KMRT 252135Z AUTO 21009KT 10SM SCT022 SCT030 OVC040 24/20 A2997 RMK AO2 P0001 T02400204
KMRT 252115Z AUTO 21009G16KT 10SM BKN020 BKN026 OVC040 24/21 A2997 RMK AO2 T02410205
KMRT 252055Z AUTO 21009G14KT 10SM OVC018 24/21 A2997 RMK AO2 P0001 60004 T02350206
KMRT 252035Z AUTO 20007KT 10SM BKN018 BKN025 OVC045 24/21 A2998 RMK AO2 P0001 T02400205
KMRT 252015Z AUTO 21007KT 10SM SCT017 BKN030 OVC042 24/21 A2997 RMK AO2 T02380205
KMRT 251955Z AUTO 22010KT 10SM BKN015 OVC025 23/21 A2999 RMK AO2 P0002 T02310205
KMRT 251935Z AUTO 17006KT 10SM BKN012 BKN018 OVC025 24/21 A2994 RMK AO2 P0001 T02350205
KMRT 251915Z AUTO 23010G15KT 10SM OVC010 23/21 A3001 RMK AO2 P0001 T02250205
KMRT 251855Z AUTO 22010G15KT 7SM OVC010 23/21 A3003 RMK AO2 P0001 T02250206
KMRT 251835Z AUTO 23013G18KT 10SM OVC012 23/20 A3004 RMK AO2 P0001 T02270204
KMRT 251815Z AUTO 22010KT 10SM OVC012 23/21 A3005 RMK AO2 T02280205
KMRT 251755Z AUTO 22010KT 10SM OVC012 23/21 A3006 RMK AO2 P0002 60009 T02260206 10228 20200
KMRT 251735Z AUTO 22012KT 10SM OVC010 23/21 A3005 RMK AO2 P0001 T02270208
KMRT 251715Z AUTO 22010KT 10SM OVC010 22/21 A3005 RMK AO2 P0001 T02210206
KMRT 251655Z AUTO 22009G14KT 10SM OVC010 22/21 A3005 RMK AO2 P0001 T02200205
KMRT 251635Z AUTO 23009G16KT 10SM OVC008 22/21 A3005 RMK AO2 P0001 T02210206
KMRT 251615Z AUTO 23008G14KT 7SM OVC008 22/21 A3005 RMK AO2 T02170205
KMRT 251555Z AUTO 22008KT 10SM OVC008 22/21 A3006 RMK AO2 P0002 T02150205
KMRT 251535Z AUTO 22008KT 7SM OVC006 21/20 A3006 RMK AO2 P0001 T02090201
KMRT 251515Z AUTO 21008KT 5SM OVC004 21/20 A3006 RMK AO2 P0001 T02060200
KMRT 251455Z AUTO 20007KT 3SM OVC004 21/20 A3006 RMK AO2 P0001 60004 T02050200
KMRT 251435Z AUTO 21008KT 4SM OVC004 20/20 A3007 RMK AO2 P0001 T02030197
KMRT 251415Z AUTO 19008KT 4SM OVC004 20/20 A3006 RMK AO2 T02010196
KMRT 251355Z AUTO 20010KT 2 1/2SM OVC008 20/20 A3006 RMK AO2 P0001 T02000195
KMRT 251335Z AUTO 19008KT 5SM BKN010 BKN019 OVC025 20/20 A3006 RMK AO2 P0001 T02000195
KMRT 251315Z AUTO 20007KT 1 3/4SM BKN008 BKN022 OVC028 20/19 A3006 RMK AO2 T02000193
KMRT 251255Z AUTO 20010KT 3/4SM OVC008 20/19 A3006 RMK AO2 P0002 T02000193
KMRT 251235Z AUTO 20007KT 5SM OVC008 20/19 A3006 RMK AO2 P0001 T02010192
KMRT 251215Z AUTO 21007KT 10SM OVC008 20/19 A3006 RMK AO2 P0001 T02020192
KMRT 251155Z AUTO 20009KT 10SM OVC008 20/19 A3006 RMK AO2 P0001 60009 70033 T02020192 10202 20200
KMRT 251135Z AUTO 20009KT 10SM OVC008 20/19 A3006 RMK AO2 P0001 T02020192
KMRT 251115Z AUTO 19007KT 10SM OVC010 20/19 A3006 RMK AO2 T02020192
KMRT 251055Z AUTO 20009KT 10SM OVC010 20/19 A3006 RMK AO2 P0001 T02020192
KMRT 251035Z AUTO 20007KT 10SM OVC010 20/19 A3005 RMK AO2 P0001 T02010192
KMRT 251015Z AUTO 20008KT 10SM OVC008 20/19 A3005 RMK AO2 T02010192
KMRT 250955Z AUTO 20007KT 10SM OVC008 20/19 A3005 RMK AO2 P0002 T02010192
KMRT 250935Z AUTO 21007KT 10SM OVC010 20/19 A3005 RMK AO2 P0001 T02010192
KMRT 250915Z AUTO 21008KT 10SM OVC010 20/19 A3004 RMK AO2 P0001 T02010192
KMRT 250855Z AUTO 21008G15KT 10SM OVC010 20/19 A3005 RMK AO2 P0002 60004 T02010192
KMRT 250835Z AUTO 20010G14KT 10SM OVC010 20/19 A3005 RMK AO2 P0001 T02010192
KMRT 250815Z AUTO 21009KT 10SM OVC010 20/19 A3005 RMK AO2 P0001 T02010192
KMRT 250755Z AUTO 21008KT 10SM OVC010 20/19 A3005 RMK AO2 P0001 T02010192
KMRT 250735Z AUTO 21011G15KT 10SM BKN010 OVC014 20/19 A3005 RMK AO2 P0001 T02010192
KMRT 250715Z AUTO 22009G15KT 10SM OVC010 20/19 A3005 RMK AO2 T02010192
KMRT 250655Z AUTO 20008KT 10SM OVC008 20/19 A3006 RMK AO2 P0001 T02000192
KMRT 250635Z AUTO 21009G14KT 10SM OVC008 20/19 A3006 RMK AO2 P0001 T02000191
KMRT 250615Z AUTO 21009KT 10SM OVC008 20/19 A3006 RMK AO2 T02000191
KMRT 250555Z AUTO 21011KT 10SM BKN008 OVC011 20/19 A3005 RMK AO2 P0001 60009 T02000191 10200 20192 402030135
KMRT 250535Z AUTO 20010KT 10SM OVC008 20/19 A3006 RMK AO2 P0001 T02000191
KMRT 250515Z AUTO 20011G14KT 7SM OVC008 20/19 A3006 RMK AO2 T02000191
KMRT 250455Z AUTO 21010G16KT 10SM BKN006 OVC013 20/19 A3006 RMK AO2 P0002 T01980190
KMRT 250435Z AUTO 19010G15KT 1 3/4SM OVC006 20/19 A3007 RMK AO2 VIS 1V4 P0001 T01960190
KMRT 250415Z AUTO 19008KT 3SM OVC006 20/19 A3007 RMK AO2 T01960190
KMRT 250355Z AUTO 21008KT 2 1/2SM OVC006 20/19 A3007 RMK AO2 P0002 T01950188
KMRT 250335Z AUTO 19010KT 10SM OVC006 20/19 A3007 RMK AO2 P0001 T01950187
KMRT 250315Z AUTO 20010G16KT 7SM OVC006 20/19 A3007 RMK AO2 P0001 T01950187
KMRT 250255Z AUTO 19009KT 10SM OVC006 20/19 A3006 RMK AO2 P0001 60004 T01950188
KMRT 250235Z AUTO 18010KT 2SM OVC006 19/19 A3006 RMK AO2 P0001 T01940187
KMRT 250215Z AUTO 18008KT 1 3/4SM BKN006 OVC013 19/19 A3006 RMK AO2 T01920185
KMRT 250155Z AUTO 18008G18KT 1 3/4SM SCT006 OVC010 19/19 A3007 RMK AO2 P0002 T01920185
KMRT 250135Z AUTO 18009G14KT 4SM BKN008 BKN024 OVC043 19/18 A3007 RMK AO2 P0001 T01930184
KMRT 250115Z AUTO 19006KT 2SM OVC006 20/19 A3007 RMK AO2 T01950190
KMRT 250055Z AUTO 20006KT 1 3/4SM OVC006 20/19 A3007 RMK AO2 P0001 T01960190
KMRT 250035Z AUTO 17006KT 2 1/2SM BKN006 BKN028 OVC040 20/19 A3007 RMK AO2 P0001 T01960190
KMRT 250015Z AUTO 18008G15KT 4SM BKN006 BKN020 OVC075 20/19 A3006 RMK AO2 T01950188
KMRT 242355Z AUTO 18009G14KT 4SM OVC008 20/19 A3006 RMK AO2 P0002 60009 T01960188 10203 20191
KMRT 242335Z AUTO 18009KT 4SM OVC008 20/19 A3007 RMK AO2 P0001 T01980190
KMRT 242315Z AUTO 18007KT 5SM BKN010 OVC015 20/19 A3008 RMK AO2 P0001 T02000190
KMRT 242255Z AUTO 18010KT 5SM SCT008 BKN012 OVC032 20/19 A3008 RMK AO2 P0001 T02010191
KMRT 242235Z AUTO 19011G19KT 3SM OVC008 20/19 A3008 RMK AO2 P0001 T02010193
KMRT 242215Z AUTO 18007KT 130V200 5SM OVC008 20/19 A3008 RMK AO2 T02020193
KMRT 242155Z AUTO 18007KT 4SM OVC008 20/20 A3008 RMK AO2 P0002 T02030195
KMRT 242135Z AUTO 18005KT 4SM OVC006 20/20 A3008 RMK AO2 P0001 T02030195
KMRT 242115Z AUTO 17005KT 4SM OVC006 20/20 A3009 RMK AO2 P0001 T02020195
KMRT 242055Z AUTO 14004KT 4SM OVC006 20/19 A3008 RMK AO2 P0001 60004 T02010193
KMRT 242035Z AUTO 00000KT 2SM OVC006 20/19 A3009 RMK AO2 P0001 T02010194
KMRT 242015Z AUTO 15003KT 2 1/2SM OVC006 20/19 A3009 RMK AO2 T02000192
KMRT 241955Z AUTO 16003KT 4SM OVC006 20/19 A3010 RMK AO2 P0001 T02000192
KMRT 241935Z AUTO 15004KT 7SM OVC004 20/19 A3010 RMK AO2 P0001 T02000191
KMRT 241915Z AUTO 14003KT 7SM OVC004 20/19 A3011 RMK AO2 T01970190
KMRT 241855Z AUTO 00000KT 5SM OVC004 20/19 A3011 RMK AO2 P0002 T01960190
KMRT 241835Z AUTO 17003KT 5SM OVC004 20/19 A3012 RMK AO2 P0001 T01950187
KMRT 241815Z AUTO 18004KT 4SM OVC004 19/19 A3014 RMK AO2 P0001 T01920185
KMRT 241755Z AUTO 18004KT 4SM OVC004 19/18 A3015 RMK AO2 60006 T01910184 10191 20160
KMRT 241735Z AUTO 18005KT 7SM OVC004 19/18 A3015 RMK AO2 T01900182
KMRT 241715Z AUTO 18006KT 7SM OVC004 19/18 A3015 RMK AO2 T01870180
KMRT 241655Z AUTO 16004KT 7SM OVC004 19/18 A3015 RMK AO2 P0002 T01870180
KMRT 241635Z AUTO 14004KT 4SM OVC004 19/18 A3015 RMK AO2 P0001 T01850177